createdAt,value
2023-03-05T00:00:26.809Z,51.71
2023-03-05T00:05:28.165Z,51.52
2023-03-05T00:10:29.434Z,51.25
2023-03-05T00:15:30.715Z,51.71
2023-03-05T00:20:31.983Z,51.37
2023-03-05T00:25:33.204Z,51.50
2023-03-05T00:30:34.469Z,51.60
2023-03-05T00:35:36.163Z,51.45
2023-03-05T00:40:37.491Z,51.39
2023-03-05T00:45:38.803Z,51.24
2023-03-05T00:50:40.075Z,51.04
2023-03-05T00:55:41.328Z,50.94
2023-03-05T01:00:42.665Z,50.84
2023-03-05T01:05:43.957Z,50.92
2023-03-05T01:10:45.253Z,50.57
2023-03-05T01:15:46.525Z,50.65
2023-03-05T01:20:47.900Z,50.37
2023-03-05T01:25:49.147Z,49.80
2023-03-05T01:30:50.503Z,49.91
2023-03-05T01:35:51.860Z,49.25
2023-03-05T01:40:53.191Z,49.24
2023-03-05T01:45:54.659Z,48.87
2023-03-05T01:50:55.928Z,48.99
2023-03-05T01:55:57.202Z,48.94
2023-03-05T02:00:58.540Z,48.50
2023-03-05T02:05:59.964Z,48.58
2023-03-05T02:11:01.268Z,48.23
2023-03-05T02:16:02.549Z,48.33
2023-03-05T02:21:03.853Z,48.31
2023-03-05T02:26:05.151Z,48.41
2023-03-05T02:31:06.469Z,48.43
2023-03-05T02:36:07.741Z,48.21
2023-03-05T02:41:09.099Z,48.00
2023-03-05T02:46:10.442Z,47.55
2023-03-05T02:51:11.740Z,47.67
2023-03-05T02:56:12.995Z,47.57
2023-03-05T03:01:14.351Z,48.10
2023-03-05T03:06:15.625Z,48.59
2023-03-05T03:11:17.001Z,48.49
2023-03-05T03:16:18.313Z,48.40
2023-03-05T03:21:19.618Z,48.59
2023-03-05T03:26:20.854Z,48.80
2023-03-05T03:31:22.251Z,49.20
2023-03-05T03:36:23.538Z,49.05
2023-03-05T03:41:24.858Z,49.00
2023-03-05T03:46:26.310Z,49.19
2023-03-05T03:51:27.669Z,48.79
2023-03-05T03:56:29.880Z,49.00
2023-03-05T04:01:31.270Z,49.44
2023-03-05T04:06:32.536Z,49.19
2023-03-05T04:11:33.811Z,49.51
2023-03-05T04:16:35.121Z,49.23
2023-03-05T04:21:36.528Z,49.36
2023-03-05T04:26:37.782Z,49.44
2023-03-05T04:31:39.149Z,49.60
2023-03-05T04:36:40.466Z,49.49
2023-03-05T04:41:41.756Z,49.35
2023-03-05T04:46:43.038Z,49.54
2023-03-05T04:51:44.285Z,49.91
2023-03-05T04:56:45.604Z,49.83
2023-03-05T05:01:46.959Z,49.95
2023-03-05T05:06:48.276Z,49.47
2023-03-05T05:11:49.568Z,49.68
2023-03-05T05:16:50.863Z,49.99
2023-03-05T05:21:52.126Z,49.97
2023-03-05T05:26:53.376Z,49.99
2023-03-05T05:31:54.716Z,49.89
2023-03-05T05:36:56.034Z,49.86
2023-03-05T05:41:57.338Z,49.48
2023-03-05T05:46:58.601Z,49.82
2023-03-05T05:51:59.957Z,49.77
2023-03-05T05:57:01.225Z,49.68
2023-03-05T06:02:02.615Z,49.34
2023-03-05T06:07:03.940Z,49.35
2023-03-05T06:12:05.250Z,49.56
2023-03-05T06:17:06.519Z,49.18
2023-03-05T06:22:07.840Z,49.58
2023-03-05T06:27:09.108Z,49.45
2023-03-05T06:32:10.410Z,49.76
2023-03-05T06:37:11.690Z,49.57
2023-03-05T06:42:13.031Z,48.73
2023-03-05T06:47:14.291Z,47.57
2023-03-05T06:52:15.528Z,46.58
2023-03-05T06:57:16.752Z,45.71
2023-03-05T07:02:18.018Z,45.50
2023-03-05T07:07:19.232Z,43.77
2023-03-05T07:12:20.456Z,43.59
2023-03-05T07:17:21.735Z,44.63
2023-03-05T07:22:23.023Z,43.41
2023-03-05T07:27:24.238Z,44.05
2023-03-05T07:32:25.608Z,44.38
2023-03-05T07:37:26.877Z,44.69
2023-03-05T07:42:28.147Z,44.65
2023-03-05T07:47:29.708Z,45.08
2023-03-05T07:52:31.010Z,44.95
2023-03-05T07:57:32.325Z,44.99
2023-03-05T08:02:33.686Z,45.07
2023-03-05T08:07:34.995Z,45.00
2023-03-05T08:12:36.276Z,44.72
2023-03-05T08:17:37.702Z,46.52
2023-03-05T08:22:38.932Z,46.12
2023-03-05T08:27:40.194Z,48.10
2023-03-05T08:32:41.531Z,47.24
2023-03-05T08:37:42.916Z,47.68
2023-03-05T08:42:44.162Z,48.02
2023-03-05T08:47:45.456Z,47.24
2023-03-05T08:52:47.119Z,46.63
2023-03-05T08:57:48.400Z,46.33
2023-03-05T09:02:49.706Z,46.61
2023-03-05T09:07:50.985Z,46.04
2023-03-05T09:12:52.288Z,45.98
2023-03-05T09:17:53.581Z,46.03
2023-03-05T09:22:54.911Z,45.65
2023-03-05T09:27:56.173Z,46.01
2023-03-05T09:32:57.510Z,46.04
2023-03-05T09:37:58.733Z,45.68
2023-03-05T09:43:00.027Z,45.48
2023-03-05T09:48:01.286Z,45.55
2023-03-05T09:53:02.536Z,45.33
2023-03-05T09:58:03.815Z,45.46
2023-03-05T10:03:05.200Z,44.83
2023-03-05T10:08:06.463Z,45.11
2023-03-05T10:13:07.755Z,45.08
2023-03-05T10:18:09.061Z,45.14
2023-03-05T10:23:10.317Z,44.85
2023-03-05T10:28:11.575Z,45.24
2023-03-05T10:33:12.846Z,45.33
2023-03-05T10:38:14.164Z,45.22
2023-03-05T10:43:15.461Z,45.20
2023-03-05T10:48:16.735Z,45.44
2023-03-05T10:53:17.995Z,45.52
2023-03-05T10:58:19.302Z,45.61
2023-03-05T11:03:20.592Z,46.02
2023-03-05T11:08:21.872Z,46.34
2023-03-05T11:13:23.186Z,46.37
2023-03-05T11:18:24.445Z,46.18
2023-03-05T11:23:25.841Z,45.96
2023-03-05T11:28:32.976Z,45.88
2023-03-05T11:33:35.031Z,46.10
2023-03-05T11:38:36.362Z,45.81
2023-03-05T11:43:37.622Z,45.86
2023-03-05T11:48:38.843Z,45.68
2023-03-05T11:53:40.156Z,46.20
2023-03-05T11:58:41.546Z,45.89
2023-03-05T12:03:42.869Z,46.87
2023-03-05T12:08:44.232Z,47.79
2023-03-05T12:13:46.574Z,48.23
2023-03-05T12:18:48.551Z,47.88
2023-03-05T12:23:49.898Z,48.18
2023-03-05T12:28:51.163Z,48.04
2023-03-05T12:33:52.476Z,47.70
2023-03-05T12:38:53.819Z,47.80
2023-03-05T12:43:55.095Z,47.81
2023-03-05T12:48:56.517Z,47.80
2023-03-05T12:53:57.874Z,48.00
2023-03-05T12:58:59.210Z,47.78
2023-03-05T13:04:00.617Z,48.00
2023-03-05T13:09:01.956Z,47.79
2023-03-05T13:14:03.373Z,47.86
2023-03-05T13:19:04.719Z,47.91
2023-03-05T13:24:06.126Z,48.08
2023-03-05T13:29:07.400Z,47.92
2023-03-05T13:34:08.700Z,47.93
2023-03-05T13:39:09.971Z,47.89
2023-03-05T13:44:11.489Z,47.90
2023-03-05T13:49:12.858Z,48.16
2023-03-05T13:54:14.611Z,48.50
2023-03-05T13:59:15.962Z,48.38
2023-03-05T14:04:17.665Z,48.65
2023-03-05T14:09:19.195Z,48.88
2023-03-05T14:14:20.598Z,49.55
2023-03-05T14:19:22.149Z,49.42
2023-03-05T14:24:23.529Z,49.52
2023-03-05T14:29:24.930Z,49.95
2023-03-05T14:34:26.286Z,49.73
2023-03-05T14:39:27.663Z,49.63
2023-03-05T14:44:29.020Z,49.16
2023-03-05T14:49:30.481Z,49.00
2023-03-05T14:54:32.427Z,48.83
2023-03-05T14:59:33.943Z,48.69
2023-03-05T15:04:35.252Z,49.01
2023-03-05T15:09:36.515Z,49.18
2023-03-05T15:14:37.768Z,49.68
2023-03-05T15:19:39.087Z,49.62
2023-03-05T15:24:40.336Z,49.71
2023-03-05T15:29:41.661Z,49.35
2023-03-05T15:34:42.884Z,49.07
2023-03-05T15:39:44.192Z,49.10
2023-03-05T15:44:45.497Z,48.79
2023-03-05T15:49:46.728Z,49.04
2023-03-05T15:54:48.107Z,48.96
2023-03-05T15:59:49.382Z,48.71
2023-03-05T16:04:50.741Z,48.81
2023-03-05T16:09:52.041Z,49.16
2023-03-05T16:14:53.346Z,49.02
2023-03-05T16:19:54.636Z,49.41
2023-03-05T16:24:55.941Z,49.56
2023-03-05T16:29:57.235Z,50.54
2023-03-05T16:34:58.542Z,50.89
2023-03-05T16:39:59.798Z,50.43
2023-03-05T16:45:01.285Z,50.16
2023-03-05T16:50:02.769Z,50.40
2023-03-05T16:55:04.212Z,50.60
2023-03-05T17:00:05.575Z,50.66
2023-03-05T17:05:06.835Z,51.07
2023-03-05T17:10:08.488Z,50.58
2023-03-05T17:15:09.805Z,50.67
2023-03-05T17:20:11.063Z,50.34
2023-03-05T17:25:12.375Z,51.16
2023-03-05T17:30:13.703Z,51.27
2023-03-05T17:35:14.954Z,51.78
2023-03-05T17:40:16.256Z,52.12
2023-03-05T17:45:17.533Z,51.34
2023-03-05T17:50:18.847Z,51.28
2023-03-05T17:55:20.174Z,51.04
2023-03-05T18:00:21.521Z,51.22
2023-03-05T18:05:22.774Z,50.97
2023-03-05T18:10:24.150Z,50.70
2023-03-05T18:15:25.450Z,50.78
2023-03-05T18:20:26.755Z,51.29
2023-03-05T18:25:28.156Z,51.41
2023-03-05T18:30:29.485Z,50.85
2023-03-05T18:35:30.751Z,50.90
2023-03-05T18:40:32.118Z,50.15
2023-03-05T18:45:33.366Z,50.81
2023-03-05T18:50:34.730Z,50.88
2023-03-05T18:55:35.997Z,51.07
2023-03-05T19:00:37.255Z,51.46
2023-03-05T19:05:38.528Z,51.65
2023-03-05T19:10:39.895Z,52.88
2023-03-05T19:15:41.272Z,53.81
2023-03-05T19:20:42.638Z,52.61
2023-03-05T19:25:43.961Z,52.64
2023-03-05T19:30:45.288Z,52.52
2023-03-05T19:35:46.664Z,53.09
2023-03-05T19:40:48.262Z,53.20
2023-03-05T19:45:49.815Z,53.32
2023-03-05T19:50:51.328Z,53.63
2023-03-05T19:55:52.649Z,53.59
2023-03-05T20:00:54.125Z,54.22
2023-03-05T20:05:55.661Z,53.83
2023-03-05T20:10:57.077Z,53.34
2023-03-05T20:15:58.575Z,54.38
2023-03-05T20:20:59.863Z,54.32
2023-03-05T20:26:02.154Z,53.99
2023-03-05T20:31:03.659Z,53.64
2023-03-05T20:36:05.068Z,53.76
2023-03-05T20:41:06.479Z,53.21
2023-03-05T20:46:07.775Z,53.40
2023-03-05T20:51:09.208Z,52.91
2023-03-05T20:56:10.486Z,52.81
2023-03-05T21:01:11.796Z,52.68
2023-03-05T21:11:38.260Z,52.30
2023-03-05T21:16:39.607Z,52.14
2023-03-05T21:21:40.932Z,52.31
2023-03-05T21:26:42.163Z,52.03
2023-03-05T21:31:43.484Z,52.21
2023-03-05T21:36:44.814Z,52.58
2023-03-05T21:41:46.083Z,52.11
2023-03-05T21:46:47.361Z,52.40
2023-03-05T21:51:48.609Z,51.72
2023-03-05T21:56:49.898Z,51.53
2023-03-05T22:01:52.558Z,51.37
2023-03-05T22:06:53.968Z,51.32
2023-03-05T22:11:55.228Z,51.25
2023-03-05T22:16:56.495Z,51.31
2023-03-05T22:21:57.797Z,51.34
2023-03-05T22:26:59.092Z,51.02
2023-03-05T22:32:00.397Z,51.17
2023-03-05T22:37:01.664Z,51.18
2023-03-05T22:42:02.944Z,51.64
2023-03-05T22:47:04.209Z,51.22
2023-03-05T22:52:05.492Z,51.39
2023-03-05T22:57:06.782Z,51.45
2023-03-05T23:02:08.060Z,51.69
2023-03-05T23:07:09.363Z,51.29
2023-03-05T23:12:10.872Z,51.36
2023-03-05T23:17:12.190Z,51.26
2023-03-05T23:22:13.536Z,51.36
2023-03-05T23:27:14.843Z,51.20
2023-03-05T23:32:16.169Z,51.52
2023-03-05T23:37:17.541Z,51.16
2023-03-05T23:42:18.832Z,51.29
2023-03-05T23:47:20.102Z,51.42
2023-03-05T23:52:21.405Z,51.27
2023-03-05T23:57:22.676Z,51.07
